Time;durP1;ratioP1;P1;durP2;ratioP2;P2;SDS_P1;SDS_P2;PMS_P1;PMS_P2;Temp;Humidity;BMP_temperature;BMP_pressure;BME280_temperature;BME280_humidity;BME280_pressure;Samples;Min_cycle;Max_cycle;Signal;HPM_P1;HPM_P2
2023/04/26 00:00:49;;;;;;;18.70;10.70;;;;;;;20.45;33.61;99093.02;108270;1254;73786;-67
2023/04/26 00:03:16;;;;;;;16.60;10.60;;;;;;;20.86;33.08;99086.41;108354;1251;60408;-67
2023/04/26 00:05:43;;;;;;;25.60;12.00;;;;;;;21.16;32.74;99088.30;108311;1251;62217;-67
2023/04/26 00:08:10;;;;;;;19.00;10.90;;;;;;;21.44;32.28;99091.11;108281;1251;76154;-67
2023/04/26 00:10:39;;;;;;;24.70;12.40;;;;;;;21.48;32.30;99093.21;108183;1251;69618;-67
2023/04/26 00:13:07;;;;;;;23.10;11.70;;;;;;;21.40;32.37;99091.50;108168;1253;75107;-68
2023/04/26 00:15:34;;;;;;;19.40;11.20;;;;;;;21.49;32.23;99096.17;108227;1254;63279;-67
2023/04/26 00:18:00;;;;;;;16.80;10.80;;;;;;;21.44;32.41;99098.25;108149;1252;61355;-67
2023/04/26 00:20:27;;;;;;;20.20;9.80;;;;;;;21.46;32.34;99100.22;108185;1253;74698;-66
2023/04/26 00:22:54;;;;;;;16.20;10.90;;;;;;;21.31;32.69;99103.41;108282;1253;70344;-66
2023/04/26 00:25:21;;;;;;;18.40;11.20;;;;;;;20.41;33.75;99103.66;108204;1254;71726;-66
2023/04/26 00:27:48;;;;;;;18.20;10.70;;;;;;;20.22;34.20;99108.34;108263;1254;61958;-66
2023/04/26 00:30:15;;;;;;;22.70;11.80;;;;;;;20.26;34.11;99110.21;108194;1253;62341;-67
2023/04/26 00:32:42;;;;;;;16.90;10.40;;;;;;;20.01;34.35;99107.94;108296;1253;75906;-67
2023/04/26 00:35:09;;;;;;;17.50;10.70;;;;;;;19.95;34.60;99107.98;108274;1253;70977;-64
2023/04/26 00:37:36;;;;;;;20.80;10.30;;;;;;;19.94;34.63;99107.55;108102;1254;74828;-67
2023/04/26 00:40:07;;;;;;;20.60;10.90;;;;;;;19.86;34.60;99105.72;108252;1253;63321;-68
2023/04/26 00:42:34;;;;;;;19.50;9.60;;;;;;;19.82;34.78;99106.41;108255;1252;62772;-67
2023/04/26 00:45:02;;;;;;;18.10;10.90;;;;;;;19.75;34.90;99107.80;108193;1253;75089;-67
2023/04/26 00:47:29;;;;;;;17.90;9.90;;;;;;;20.03;34.68;99107.55;108210;1253;69777;-64
2023/04/26 00:49:57;;;;;;;18.60;10.60;;;;;;;20.19;34.35;99109.27;108098;1254;73847;-67
2023/04/26 00:52:24;;;;;;;17.80;11.20;;;;;;;19.94;34.65;99110.83;108144;1252;61670;-67
2023/04/26 00:54:51;;;;;;;19.80;11.10;;;;;;;20.67;33.85;99107.29;108194;1257;61172;-66
2023/04/26 00:57:18;;;;;;;18.40;11.20;;;;;;;20.95;33.49;99107.45;108158;1254;75710;-67
2023/04/26 00:59:45;;;;;;;23.40;10.90;;;;;;;21.17;33.06;99106.56;108184;1254;71326;-66
2023/04/26 01:02:14;;;;;;;20.30;11.50;;;;;;;20.85;33.42;99108.53;108219;1253;72555;-67
2023/04/26 01:04:44;;;;;;;19.20;10.60;;;;;;;20.33;34.34;99111.73;108171;1252;61999;-68
2023/04/26 01:07:10;;;;;;;17.70;10.90;;;;;;;21.19;33.12;99105.98;108167;1254;61047;-68
2023/04/26 01:09:37;;;;;;;22.70;11.30;;;;;;;20.94;33.48;99102.52;108187;1252;74737;-66
2023/04/26 01:12:05;;;;;;;16.60;10.40;;;;;;;20.71;33.78;99105.71;108197;1254;71539;-67
2023/04/26 01:14:35;;;;;;;21.10;12.30;;;;;;;20.76;33.72;99105.85;108224;1253;74974;-66
2023/04/26 01:17:02;;;;;;;19.60;11.10;;;;;;;20.85;33.67;99103.80;108172;1254;61567;-66
2023/04/26 01:19:29;;;;;;;19.40;10.70;;;;;;;20.42;34.32;99107.52;108209;1253;60472;-66
2023/04/26 01:21:56;;;;;;;17.80;10.30;;;;;;;20.19;34.57;99106.41;108094;1254;75791;-66
2023/04/26 01:24:23;;;;;;;14.50;9.90;;;;;;;20.65;34.05;99103.36;108085;1254;70435;-66
2023/04/26 01:26:50;;;;;;;18.90;10.20;;;;;;;20.99;33.54;99100.99;108172;1253;74942;-67
2023/04/26 01:29:20;;;;;;;22.70;10.40;;;;;;;21.06;33.38;99105.29;108153;1254;61202;-67
2023/04/26 01:31:47;;;;;;;14.80;9.80;;;;;;;21.01;33.37;99099.38;108234;1254;61706;-67
2023/04/26 01:34:14;;;;;;;16.60;11.00;;;;;;;20.91;33.50;99095.93;108187;1254;74342;-67
2023/04/26 01:36:44;;;;;;;17.90;11.10;;;;;;;20.89;33.60;99093.25;108249;1254;72669;-66
2023/04/26 01:39:12;;;;;;;17.70;9.90;;;;;;;20.79;33.87;99090.95;108226;1252;72865;-67
2023/04/26 01:41:39;;;;;;;23.90;11.00;;;;;;;20.70;34.05;99090.48;108205;1253;63340;-66
2023/04/26 01:44:06;;;;;;;16.40;10.10;;;;;;;20.91;33.82;99093.23;108222;1252;60421;-68
2023/04/26 01:46:33;;;;;;;16.20;9.60;;;;;;;21.10;33.53;99091.61;108259;1253;75628;-67
2023/04/26 01:48:59;;;;;;;17.40;9.60;;;;;;;21.27;33.16;99084.94;108218;1253;71224;-66
2023/04/26 01:51:28;;;;;;;18.50;10.60;;;;;;;21.30;33.25;99087.52;108268;1254;74882;-67
2023/04/26 01:53:55;;;;;;;18.70;10.80;;;;;;;21.12;33.33;99086.90;108173;1253;63451;-68
2023/04/26 01:56:24;;;;;;;16.20;9.90;;;;;;;20.61;34.09;99091.50;108124;1252;60787;-66
2023/04/26 01:58:52;;;;;;;17.20;10.30;;;;;;;20.41;34.44;99090.52;108200;1253;74560;-67
2023/04/26 02:01:19;;;;;;;19.30;11.10;;;;;;;20.49;34.57;99088.13;108350;1254;71848;-66
2023/04/26 02:03:45;;;;;;;17.60;10.70;;;;;;;20.35;34.98;99088.58;108191;1253;73594;-67
2023/04/26 02:06:12;;;;;;;18.10;11.80;;;;;;;20.68;35.15;99088.15;108207;1252;61814;-65
2023/04/26 02:08:39;;;;;;;16.60;10.20;;;;;;;20.82;35.45;99083.55;108247;1253;61407;-66
2023/04/26 02:11:06;;;;;;;17.30;10.80;;;;;;;20.68;35.79;99080.98;108206;1252;74573;-67
2023/04/26 02:13:34;;;;;;;17.80;11.40;;;;;;;20.89;35.76;99080.36;108224;1254;70925;-68
2023/04/26 02:16:02;;;;;;;16.50;9.70;;;;;;;20.89;36.11;99083.94;108245;1253;73848;-67
2023/04/26 02:18:29;;;;;;;17.80;10.80;;;;;;;20.99;36.16;99081.05;108206;1254;62964;-66
2023/04/26 02:20:56;;;;;;;15.90;9.60;;;;;;;21.05;36.51;99086.19;108122;1254;61504;-66
2023/04/26 02:23:23;;;;;;;16.50;9.70;;;;;;;21.23;36.32;99079.65;108262;1254;75143;-68
2023/04/26 02:25:50;;;;;;;14.80;9.90;;;;;;;20.88;37.16;99082.31;108177;1253;71547;-67
2023/04/26 02:28:17;;;;;;;15.60;10.20;;;;;;;21.23;37.02;99084.53;108310;1253;74069;-67
2023/04/26 02:30:44;;;;;;;16.30;10.30;;;;;;;21.92;35.91;99085.23;108289;1254;63011;-66
2023/04/26 02:33:11;;;;;;;18.90;11.40;;;;;;;21.84;36.04;99087.17;108190;1254;61514;-68
2023/04/26 02:35:38;;;;;;;15.10;10.20;;;;;;;22.31;35.64;99088.63;108320;1256;74151;-66
2023/04/26 02:38:06;;;;;;;16.90;10.00;;;;;;;22.31;36.12;99086.69;108159;1254;71689;-68
2023/04/26 02:40:33;;;;;;;13.60;9.30;;;;;;;22.17;36.60;99084.73;108186;1252;74823;-67
2023/04/26 02:43:00;;;;;;;20.10;9.80;;;;;;;22.40;36.09;99083.50;108226;1251;63506;-69
2023/04/26 02:45:27;;;;;;;19.10;9.80;;;;;;;22.67;36.05;99080.86;108193;1252;60707;-68
2023/04/26 02:47:53;;;;;;;15.80;9.60;;;;;;;22.75;36.06;99079.06;108206;1254;75594;-66
2023/04/26 02:50:20;;;;;;;17.90;10.40;;;;;;;22.70;36.47;99078.04;108105;1252;71992;-67
2023/04/26 02:52:48;;;;;;;21.90;10.80;;;;;;;22.89;36.23;99076.65;108025;1254;74736;-67
2023/04/26 02:55:15;;;;;;;15.10;9.30;;;;;;;23.10;35.96;99068.33;108138;1253;61936;-68
2023/04/26 02:57:42;;;;;;;15.90;9.60;;;;;;;23.20;35.75;99067.27;108084;1253;62401;-67
2023/04/26 03:00:12;;;;;;;17.70;10.30;;;;;;;23.57;35.19;99067.53;108307;1252;76274;-67
2023/04/26 03:02:39;;;;;;;16.60;12.00;;;;;;;23.73;34.87;99068.02;108184;1254;68700;-66
2023/04/26 03:05:08;;;;;;;15.00;10.90;;;;;;;23.74;34.80;99069.55;107980;1257;74745;-68
2023/04/26 03:07:35;;;;;;;16.70;11.20;;;;;;;23.76;34.73;99063.92;108224;1252;60671;-68
2023/04/26 03:10:04;;;;;;;19.70;11.60;;;;;;;23.84;34.67;99061.92;108194;1254;61916;-68
2023/04/26 03:12:31;;;;;;;16.30;10.40;;;;;;;23.84;34.75;99062.87;108084;1254;75759;-67
2023/04/26 03:14:58;;;;;;;19.20;12.60;;;;;;;23.85;34.80;99059.96;108099;1253;72801;-66
2023/04/26 03:17:25;;;;;;;22.40;11.20;;;;;;;23.79;34.99;99061.70;108038;1253;72350;-69
2023/04/26 03:19:52;;;;;;;21.30;11.70;;;;;;;23.87;34.90;99059.14;108051;1254;64243;-67
2023/04/26 03:22:19;;;;;;;20.30;11.70;;;;;;;23.86;35.03;99056.09;107986;1253;60268;-68
2023/04/26 03:24:47;;;;;;;16.70;10.50;;;;;;;23.74;35.28;99058.90;107981;1254;72697;-65
2023/04/26 03:27:15;;;;;;;20.70;10.60;;;;;;;23.94;35.26;99063.17;107990;1259;71036;-67
2023/04/26 03:29:43;;;;;;;21.20;11.60;;;;;;;23.61;35.69;99063.79;108178;1252;72609;-69
2023/04/26 03:32:10;;;;;;;18.40;12.30;;;;;;;23.67;35.67;99060.63;108134;1252;64316;-68
2023/04/26 03:34:37;;;;;;;19.80;11.70;;;;;;;23.80;35.65;99060.30;108188;1252;61017;-67
2023/04/26 03:37:04;;;;;;;18.20;11.90;;;;;;;23.81;35.71;99062.34;108001;1253;76726;-68
2023/04/26 03:39:31;;;;;;;19.90;13.20;;;;;;;23.80;35.70;99064.57;108070;1258;72938;-66
2023/04/26 03:42:00;;;;;;;18.70;13.10;;;;;;;23.71;36.01;99067.02;108062;1252;74683;-67
2023/04/26 03:44:26;;;;;;;22.90;12.80;;;;;;;23.71;36.24;99066.76;108059;1254;61595;-69
2023/04/26 03:46:56;;;;;;;23.90;13.80;;;;;;;23.85;36.08;99068.48;108152;1253;62367;-67
2023/04/26 03:49:23;;;;;;;21.30;13.30;;;;;;;23.40;36.82;99070.13;107966;1259;75692;-68
2023/04/26 03:51:50;;;;;;;23.10;13.00;;;;;;;23.63;36.39;99072.92;108114;1254;70242;-69
2023/04/26 03:54:17;;;;;;;20.20;12.00;;;;;;;23.26;36.96;99073.24;108013;1254;71629;-68
2023/04/26 03:56:44;;;;;;;19.60;11.40;;;;;;;23.04;37.15;99083.77;107924;1253;63909;-67
2023/04/26 03:59:11;;;;;;;17.80;11.40;;;;;;;23.06;37.25;99083.45;108093;1254;62699;-66
2023/04/26 04:01:38;;;;;;;21.00;12.00;;;;;;;23.29;36.69;99082.94;107990;1253;75939;-68
2023/04/26 04:04:05;;;;;;;20.50;12.00;;;;;;;23.43;36.52;99080.17;108017;1253;72399;-67
2023/04/26 04:06:32;;;;;;;20.90;12.20;;;;;;;23.60;36.44;99077.98;107890;1253;74371;-68
2023/04/26 04:08:59;;;;;;;21.60;11.90;;;;;;;23.35;36.81;99075.11;107981;1255;63307;-68
2023/04/26 04:11:26;;;;;;;19.90;11.30;;;;;;;23.62;36.64;99070.87;107911;1253;60692;-67
2023/04/26 04:13:53;;;;;;;19.80;11.90;;;;;;;23.57;36.67;99075.09;108171;1258;74964;-68
2023/04/26 04:16:20;;;;;;;19.40;12.10;;;;;;;23.76;36.41;99073.49;108146;1253;72594;-69
2023/04/26 04:18:47;;;;;;;22.40;12.40;;;;;;;23.64;36.64;99068.83;108106;1254;73989;-68
2023/04/26 04:21:14;;;;;;;20.40;13.20;;;;;;;24.23;35.84;99066.98;108066;1253;63994;-69
2023/04/26 04:23:43;;;;;;;21.30;14.40;;;;;;;24.24;35.86;99065.45;108287;1254;62515;-68
2023/04/26 04:26:11;;;;;;;30.50;14.70;;;;;;;24.25;36.06;99058.41;107952;1254;76208;-68
2023/04/26 04:28:40;;;;;;;20.50;14.70;;;;;;;24.10;36.43;99053.69;108087;1254;70849;-68
2023/04/26 04:31:08;;;;;;;24.60;14.90;;;;;;;24.01;36.56;99052.89;108038;1254;72637;-68
2023/04/26 04:33:36;;;;;;;26.90;15.20;;;;;;;23.88;36.67;99056.72;107888;1253;61921;-67
2023/04/26 04:36:03;;;;;;;25.80;15.00;;;;;;;24.13;36.26;99059.55;108018;1259;62627;-67
2023/04/26 04:38:30;;;;;;;30.60;15.30;;;;;;;24.39;36.02;99058.45;108080;1254;75994;-67
2023/04/26 04:40:57;;;;;;;20.90;13.90;;;;;;;24.02;36.43;99063.95;108178;1254;71559;-68
2023/04/26 04:43:24;;;;;;;23.80;13.80;;;;;;;23.93;36.34;99062.61;108133;1253;75123;-67
2023/04/26 04:45:52;;;;;;;19.90;13.00;;;;;;;24.14;36.01;99063.23;108166;1253;61859;-68
2023/04/26 04:48:20;;;;;;;24.10;13.00;;;;;;;24.10;36.02;99061.61;108012;1254;60483;-68
2023/04/26 04:50:48;;;;;;;21.90;13.00;;;;;;;23.82;36.44;99063.14;108098;1253;76424;-67
2023/04/26 04:53:15;;;;;;;22.40;13.10;;;;;;;23.84;36.30;99059.81;107995;1254;72488;-67
2023/04/26 04:55:42;;;;;;;16.80;12.20;;;;;;;23.67;36.55;99058.94;108056;1251;74651;-67
2023/04/26 04:58:11;;;;;;;18.10;11.30;;;;;;;23.94;36.27;99058.42;108259;1252;61868;-68
2023/04/26 05:00:38;;;;;;;22.50;11.90;;;;;;;24.08;35.93;99059.34;108242;1251;61632;-67
2023/04/26 05:03:15;;;;;;;17.80;11.50;;;;;;;24.35;35.66;99058.66;108274;1251;75780;-68
2023/04/26 05:05:42;;;;;;;20.60;10.80;;;;;;;24.45;35.45;99053.84;108270;1256;71972;-69
2023/04/26 05:08:09;;;;;;;19.40;11.50;;;;;;;24.36;35.24;99050.48;108296;1251;71379;-67
2023/04/26 05:10:36;;;;;;;20.20;11.80;;;;;;;24.46;35.12;99052.21;108225;1251;64017;-68
2023/04/26 05:13:04;;;;;;;16.40;10.70;;;;;;;24.80;34.53;99052.73;108193;1254;60330;-69
2023/04/26 05:15:31;;;;;;;21.30;9.70;;;;;;;24.97;34.13;99052.09;108099;1259;73543;-68
2023/04/26 05:17:58;;;;;;;14.90;8.90;;;;;;;25.06;33.65;99052.55;108315;1254;71314;-68
2023/04/26 05:20:25;;;;;;;15.00;9.40;;;;;;;25.01;33.24;99057.02;108282;1253;73848;-69
2023/04/26 05:22:53;;;;;;;15.50;9.40;;;;;;;24.97;33.02;99056.02;108167;1254;64242;-66
2023/04/26 05:25:21;;;;;;;9.90;7.50;;;;;;;24.97;32.82;99057.97;108212;1254;62093;-66
2023/04/26 05:30:19;;;;;;;13.40;8.50;;;;;;;20.78;39.28;99070.65;104889;1292;601001;-68
2023/04/26 05:33:12;;;;;;;15.40;9.50;;;;;;;22.47;36.35;99071.52;107267;1266;64091;-69
2023/04/26 05:35:46;;;;;;;13.00;9.50;;;;;;;22.71;36.54;99070.79;107309;1264;60948;-69
2023/04/26 05:38:13;;;;;;;16.30;9.00;;;;;;;22.79;36.37;99073.89;108221;1253;74147;-67
2023/04/26 05:40:40;;;;;;;11.40;8.10;;;;;;;22.80;36.66;99083.11;108061;1253;72605;-69
2023/04/26 05:43:07;;;;;;;14.20;10.30;;;;;;;23.03;36.56;99081.58;108012;1250;145009;-67
2023/04/26 05:45:35;;;;;;;17.90;9.80;;;;;;;23.09;36.62;99078.80;108351;1250;62990;-67
2023/04/26 05:48:03;;;;;;;13.50;8.90;;;;;;;23.24;36.92;99075.41;108314;1250;59757;-67
2023/04/26 05:50:30;;;;;;;14.90;9.50;;;;;;;23.09;37.13;99089.58;108349;1250;72586;-69
2023/04/26 05:53:05;;;;;;;16.70;9.20;;;;;;;23.04;37.42;99087.96;108255;1250;72657;-68
2023/04/26 05:55:32;;;;;;;13.80;8.20;;;;;;;23.24;37.30;99084.05;108433;1250;72916;-67
2023/04/26 05:57:59;;;;;;;17.80;10.40;;;;;;;23.65;36.57;99084.32;108184;1250;63769;-68
2023/04/26 06:00:27;;;;;;;15.60;9.30;;;;;;;23.70;36.34;99083.05;108407;1250;62645;-67
2023/04/26 06:02:54;;;;;;;14.00;8.70;;;;;;;23.58;36.38;99085.20;108152;1250;74037;-68
2023/04/26 06:05:22;;;;;;;15.60;9.10;;;;;;;24.06;35.88;99079.12;108358;1250;73031;-68
2023/04/26 06:07:50;;;;;;;11.20;8.50;;;;;;;24.59;35.16;99075.24;108206;1251;73902;-67
2023/04/26 06:10:17;;;;;;;15.90;8.70;;;;;;;24.54;35.12;99079.02;108061;1251;64292;-68
2023/04/26 06:12:45;;;;;;;17.40;7.60;;;;;;;24.37;35.40;99078.44;108243;1251;62380;-68
2023/04/26 06:15:15;;;;;;;14.30;9.10;;;;;;;24.47;35.06;99082.80;108105;1251;73921;-68
2023/04/26 06:17:42;;;;;;;13.90;8.30;;;;;;;24.49;34.96;99086.39;108051;1251;72769;-67
2023/04/26 06:20:09;;;;;;;16.80;7.90;;;;;;;24.32;35.17;99084.89;108242;1251;73155;-68
2023/04/26 06:22:36;;;;;;;17.10;8.80;;;;;;;24.76;34.81;99081.78;108200;1251;62088;-67
2023/04/26 06:25:04;;;;;;;18.10;8.20;;;;;;;24.96;34.48;99082.94;108010;1251;62580;-69
2023/04/26 06:27:32;;;;;;;13.20;7.60;;;;;;;24.96;34.18;99082.69;108162;1251;74122;-68
2023/04/26 06:29:59;;;;;;;11.50;8.00;;;;;;;24.95;34.07;99077.08;108199;1251;71003;-69
2023/04/26 06:32:26;;;;;;;17.00;8.90;;;;;;;25.03;33.93;99072.36;108171;1254;73616;-69
2023/04/26 06:34:53;;;;;;;13.40;9.20;;;;;;;25.32;33.64;99071.77;108326;1253;62490;-69
2023/04/26 06:37:20;;;;;;;22.60;8.70;;;;;;;25.43;33.26;99076.79;108331;1251;59524;-69
2023/04/26 06:39:47;;;;;;;11.30;7.60;;;;;;;25.64;32.71;99078.20;108259;1251;73625;-68
2023/04/26 06:42:14;;;;;;;9.00;6.90;;;;;;;25.75;32.06;99077.61;108137;1251;70152;-68
2023/04/26 06:45:08;;;;;;;15.20;7.30;;;;;;;25.52;32.35;99073.23;107870;1252;73640;-66
2023/04/26 06:47:35;;;;;;;14.60;7.20;;;;;;;25.34;32.34;99079.86;108055;1254;62794;-67
2023/04/26 06:50:03;;;;;;;17.00;6.80;;;;;;;25.18;32.71;99078.59;108110;1251;62262;-68
2023/04/26 06:52:30;;;;;;;13.50;7.10;;;;;;;25.43;32.69;99071.94;108259;1251;75315;-66
2023/04/26 06:55:00;;;;;;;15.40;7.20;;;;;;;25.71;32.12;99077.67;108208;1256;71709;-68
2023/04/26 06:57:27;;;;;;;15.10;7.80;;;;;;;25.76;32.17;99082.83;108282;1251;75822;-68
2023/04/26 06:59:54;;;;;;;13.50;6.90;;;;;;;25.99;32.03;99077.17;108185;1251;60857;-67
2023/04/26 07:02:23;;;;;;;10.40;7.80;;;;;;;26.37;31.66;99080.05;108206;1251;59525;-68
2023/04/26 07:04:50;;;;;;;16.40;7.90;;;;;;;26.46;31.58;99084.54;108301;1251;72915;-68
2023/04/26 07:07:18;;;;;;;14.60;7.70;;;;;;;26.41;31.89;99085.83;108206;1251;69444;-68
2023/04/26 07:09:45;;;;;;;13.20;7.50;;;;;;;26.41;31.65;99087.46;108229;1251;72748;-68
2023/04/26 07:12:12;;;;;;;18.70;8.10;;;;;;;25.45;33.02;99081.48;108216;1251;63665;-68
2023/04/26 07:14:40;;;;;;;16.50;8.20;;;;;;;26.32;31.86;99085.20;108277;1251;60440;-67
2023/04/26 07:17:07;;;;;;;15.60;7.70;;;;;;;26.66;31.62;99086.02;108267;1251;75201;-68
2023/04/26 07:19:34;;;;;;;14.00;7.20;;;;;;;26.73;31.53;99085.21;108152;1251;69545;-69
2023/04/26 07:22:01;;;;;;;17.00;7.20;;;;;;;27.16;31.00;99086.28;108172;1253;73393;-69
2023/04/26 07:24:28;;;;;;;11.30;6.60;;;;;;;27.53;30.63;99082.56;108182;1251;64095;-68
2023/04/26 07:26:55;;;;;;;12.00;7.20;;;;;;;27.42;30.69;99082.49;108462;1251;59378;-67
2023/04/26 07:29:22;;;;;;;13.60;6.90;;;;;;;27.47;30.77;99082.59;108234;1251;74994;-68
2023/04/26 07:31:49;;;;;;;13.70;7.30;;;;;;;27.17;30.71;99087.09;108226;1251;72384;-67
2023/04/26 07:34:16;;;;;;;15.10;7.10;;;;;;;27.16;30.57;99088.08;108267;1251;72377;-69
2023/04/26 07:36:43;;;;;;;14.20;7.30;;;;;;;27.16;30.13;99086.53;108197;1251;62162;-69
2023/04/26 07:39:10;;;;;;;15.90;7.30;;;;;;;27.56;30.05;99079.02;108231;1251;61806;-68
2023/04/26 07:41:37;;;;;;;18.60;7.80;;;;;;;27.51;30.17;99075.27;108212;1251;75276;-69
2023/04/26 07:44:04;;;;;;;17.60;7.80;;;;;;;27.93;29.96;99078.73;108266;1256;72680;-69
2023/04/26 07:46:34;;;;;;;16.30;7.40;;;;;;;28.47;28.77;99079.05;108165;1251;73770;-69
2023/04/26 07:49:00;;;;;;;13.50;7.70;;;;;;;28.84;28.00;99072.20;108291;1251;62653;-69
2023/04/26 07:51:27;;;;;;;13.30;7.40;;;;;;;28.79;28.16;99073.85;108258;1251;60799;-69
2023/04/26 07:53:54;;;;;;;21.30;7.50;;;;;;;28.79;28.03;99078.09;108252;1251;73018;-67
2023/04/26 07:56:23;;;;;;;12.40;7.50;;;;;;;29.36;27.59;99072.69;108197;1251;69771;-68
2023/04/26 07:58:50;;;;;;;14.40;6.30;;;;;;;29.13;27.29;99075.02;108295;1251;75074;-69
2023/04/26 08:01:17;;;;;;;17.50;6.40;;;;;;;28.89;27.71;99077.44;108211;1253;59677;-68
2023/04/26 08:03:44;;;;;;;11.30;7.50;;;;;;;29.20;27.48;99075.85;108287;1251;59640;-69
2023/04/26 08:06:11;;;;;;;14.30;7.10;;;;;;;29.17;27.13;99083.88;108182;1251;73180;-68
2023/04/26 08:08:44;;;;;;;15.50;7.00;;;;;;;29.04;27.00;99089.36;108250;1251;72812;-67
2023/04/26 08:11:11;;;;;;;11.60;6.50;;;;;;;29.17;27.13;99090.21;108270;1251;74778;-68
2023/04/26 08:13:38;;;;;;;13.30;6.50;;;;;;;28.77;27.58;99093.84;108194;1251;60288;-69
2023/04/26 08:16:05;;;;;;;13.40;6.30;;;;;;;29.04;27.42;99094.73;108224;1251;62317;-68
2023/04/26 08:18:32;;;;;;;12.40;6.30;;;;;;;28.49;27.94;99093.94;108196;1251;75166;-67
2023/04/26 08:20:59;;;;;;;20.60;7.40;;;;;;;28.62;28.14;99097.11;108320;1251;72643;-69
2023/04/26 08:23:27;;;;;;;14.20;6.80;;;;;;;29.26;27.48;99094.43;108222;1252;74850;-69
2023/04/26 08:25:54;;;;;;;12.30;6.40;;;;;;;29.87;26.79;99095.95;108319;1253;62560;-67
2023/04/26 08:28:20;;;;;;;11.20;6.20;;;;;;;30.46;26.19;99091.59;108277;1256;62328;-68
2023/04/26 08:30:47;;;;;;;18.00;6.90;;;;;;;30.85;26.10;99092.15;108161;1251;74966;-69
2023/04/26 08:33:14;;;;;;;12.20;6.80;;;;;;;31.52;25.39;99091.10;108207;1256;72649;-67
2023/04/26 08:35:41;;;;;;;13.90;7.10;;;;;;;31.38;25.01;99088.36;108074;1253;72391;-68
2023/04/26 08:38:08;;;;;;;11.10;7.10;;;;;;;31.85;24.60;99085.75;108174;1252;62538;-66
2023/04/26 08:40:35;;;;;;;11.00;6.10;;;;;;;31.79;24.48;99086.05;108339;1251;61184;-66
2023/04/26 08:43:02;;;;;;;18.00;6.30;;;;;;;31.79;24.56;99093.30;108265;1251;74127;-69
2023/04/26 08:45:29;;;;;;;11.80;6.10;;;;;;;30.78;25.13;99104.70;108331;1251;71455;-67
2023/04/26 08:48:03;;;;;;;12.30;6.10;;;;;;;30.73;25.42;99100.78;108252;1256;74792;-69
2023/04/26 08:50:32;;;;;;;9.20;6.10;;;;;;;30.16;26.06;99092.37;108293;1251;62362;-67
2023/04/26 08:53:02;;;;;;;15.40;6.50;;;;;;;30.11;26.25;99091.16;108339;1253;62216;-69
2023/04/26 08:55:29;;;;;;;10.40;5.60;;;;;;;30.37;26.05;99094.98;108264;1251;75044;-68
2023/04/26 08:57:56;;;;;;;18.50;6.70;;;;;;;30.33;26.19;99093.20;108139;1253;69793;-68
2023/04/26 09:00:23;;;;;;;14.90;6.90;;;;;;;30.32;26.30;99098.85;108300;1251;73756;-68
2023/04/26 09:02:51;;;;;;;10.90;6.20;;;;;;;29.50;27.12;99091.65;108220;1251;61530;-69
2023/04/26 09:05:22;;;;;;;13.70;6.80;;;;;;;29.44;27.55;99087.35;108285;1251;62243;-69
2023/04/26 09:07:51;;;;;;;;;;;;;;;29.44;27.37;99084.19;108209;1251;75134;-69
2023/04/26 09:10:22;;;;;;;14.00;7.00;;;;;;;29.27;27.71;99090.67;108251;1256;69103;-70
2023/04/26 09:12:51;;;;;;;13.30;6.20;;;;;;;29.06;27.76;99082.36;108232;1252;75162;-68
2023/04/26 09:15:20;;;;;;;11.00;6.40;;;;;;;29.18;27.96;99081.34;108183;1253;60956;-70
2023/04/26 09:17:48;;;;;;;14.10;6.50;;;;;;;29.41;27.63;99076.95;108213;1253;60416;-70
2023/04/26 09:20:24;;;;;;;10.90;6.10;;;;;;;29.17;27.85;99075.88;108176;1256;72898;-69
2023/04/26 09:23:12;;;;;;;8.50;6.50;;;;;;;29.20;28.18;99074.76;108247;1251;70108;-68
2023/04/26 09:25:38;;;;;;;12.50;5.50;;;;;;;29.04;28.25;99071.67;108268;1253;73529;-68
2023/04/26 09:28:18;;;;;;;10.10;5.60;;;;;;;28.89;28.45;99067.88;108234;1253;61739;-69
2023/04/26 09:30:45;;;;;;;13.30;6.80;;;;;;;28.72;28.76;99073.59;108258;1251;62357;-69
2023/04/26 09:33:12;;;;;;;15.70;7.40;;;;;;;28.81;28.90;99075.56;108293;1251;74314;-69
2023/04/26 09:35:40;;;;;;;14.60;6.80;;;;;;;28.64;29.26;99071.45;108203;1252;71151;-68
2023/04/26 09:38:11;;;;;;;17.40;7.10;;;;;;;28.64;29.21;99075.27;108158;1251;75020;-68
2023/04/26 09:40:47;;;;;;;11.80;5.90;;;;;;;28.90;29.49;99078.89;108227;1254;61746;-67
2023/04/26 09:43:20;;;;;;;12.00;5.50;;;;;;;28.40;30.16;99087.90;108199;1256;62283;-68
2023/04/26 09:46:06;;;;;;;10.80;5.80;;;;;;;28.33;30.23;99085.56;108206;1253;74766;-70
2023/04/26 09:48:33;;;;;;;9.20;5.30;;;;;;;27.77;31.01;99096.21;108159;1253;72316;-68
2023/04/26 09:51:03;;;;;;;10.40;4.70;;;;;;;27.40;31.77;99096.34;108209;1253;71221;-68
2023/04/26 09:53:33;;;;;;;13.40;5.00;;;;;;;26.80;32.72;99102.95;108180;1251;61744;-69
2023/04/26 09:56:07;;;;;;;13.60;5.90;;;;;;;26.76;32.92;99106.64;108220;1251;62330;-68
2023/04/26 09:58:38;;;;;;;9.10;5.80;;;;;;;26.61;33.45;99109.57;108244;1252;73547;-69
2023/04/26 10:01:06;;;;;;;10.70;5.80;;;;;;;26.94;33.44;99110.80;108192;1253;71702;-70
2023/04/26 10:03:34;;;;;;;14.70;6.60;;;;;;;27.43;33.07;99113.55;108233;1253;74580;-68
2023/04/26 10:06:01;;;;;;;7.30;5.40;;;;;;;27.05;33.48;99118.57;108205;1253;64486;-69
2023/04/26 10:08:30;;;;;;;11.80;6.00;;;;;;;26.91;33.90;99121.27;108150;1253;62252;-70
2023/04/26 10:10:57;;;;;;;11.50;7.10;;;;;;;27.40;33.13;99119.55;108176;1251;74928;-68
2023/04/26 10:13:23;;;;;;;18.10;6.80;;;;;;;27.88;32.55;99118.80;108049;1253;71991;-68
2023/04/26 10:15:50;;;;;;;13.20;6.60;;;;;;;27.50;33.05;99121.34;108137;1251;72837;-68
2023/04/26 10:18:17;;;;;;;12.00;7.00;;;;;;;27.24;33.42;99124.43;108106;1253;62974;-68
2023/04/26 10:20:46;;;;;;;12.50;6.90;;;;;;;27.21;33.65;99120.06;108190;1252;62412;-68
2023/04/26 10:23:24;;;;;;;10.80;6.50;;;;;;;27.51;33.64;99118.55;108152;1252;72172;-68
2023/04/26 10:25:51;;;;;;;11.20;6.90;;;;;;;27.95;33.20;99116.73;108236;1251;70347;-69
2023/04/26 10:28:38;;;;;;;11.60;6.00;;;;;;;28.49;32.65;99119.55;108338;1251;74857;-67
2023/04/26 10:31:08;;;;;;;11.20;6.80;;;;;;;27.67;32.93;99117.83;108261;1252;63148;-69
2023/04/26 10:33:36;;;;;;;8.70;5.90;;;;;;;28.01;32.48;99120.86;108260;1251;60352;-69
2023/04/26 10:36:07;;;;;;;10.70;5.50;;;;;;;27.98;32.18;99121.23;108374;1253;74181;-68
2023/04/26 10:38:35;;;;;;;8.90;5.90;;;;;;;28.09;31.95;99115.30;108230;1253;72383;-69
2023/04/26 10:41:28;;;;;;;9.10;6.40;;;;;;;28.50;31.24;99114.05;108222;1252;74946;-69
2023/04/26 10:43:55;;;;;;;11.70;6.30;;;;;;;28.77;30.99;99109.88;108205;1252;62585;-68
2023/04/26 10:46:36;;;;;;;12.50;6.50;;;;;;;28.76;30.98;99110.57;108132;1252;60552;-68
2023/04/26 10:49:13;;;;;;;;;;;;;;;28.27;31.39;99114.34;108193;1252;76268;-68
2023/04/26 10:51:40;;;;;;;9.90;6.80;;;;;;;27.97;32.04;99113.73;108213;1251;70105;-68
2023/04/26 10:54:07;;;;;;;12.90;6.70;;;;;;;28.38;31.71;99113.89;108151;1253;71539;-67
2023/04/26 10:56:37;;;;;;;11.40;6.40;;;;;;;28.30;31.96;99112.23;108246;1253;64066;-69
2023/04/26 10:59:18;;;;;;;12.00;6.50;;;;;;;28.86;31.42;99112.88;108220;1252;62111;-69
2023/04/26 11:02:09;;;;;;;14.80;6.70;;;;;;;29.46;30.25;99110.02;108152;1253;75081;-65
2023/04/26 11:04:52;;;;;;;12.90;6.20;;;;;;;29.20;30.83;99115.69;108191;1251;71019;-68
2023/04/26 11:07:37;;;;;;;10.90;5.20;;;;;;;29.49;30.41;99116.30;108177;1253;74520;-68
2023/04/26 11:10:11;;;;;;;9.30;6.30;;;;;;;29.36;30.41;99111.95;108162;1252;64326;-67
2023/04/26 11:12:40;;;;;;;12.00;6.10;;;;;;;29.55;30.04;99117.53;108136;1253;62508;-71
2023/04/26 11:15:07;;;;;;;10.20;6.00;;;;;;;29.05;30.65;99120.87;108271;1251;75948;-70
2023/04/26 11:17:36;;;;;;;9.70;6.60;;;;;;;29.15;30.66;99123.43;108161;1256;72480;-70
2023/04/26 11:20:08;;;;;;;10.20;6.10;;;;;;;29.17;30.41;99113.52;108178;1252;74233;-68
2023/04/26 11:22:38;;;;;;;9.50;6.90;;;;;;;29.21;30.56;99112.83;108187;1253;62745;-67